createdAt,value
2018-05-12T02:59:25.291Z,0
2018-05-12T02:59:45.542Z,0
2018-05-12T03:00:05.717Z,0
2018-05-12T03:00:25.912Z,0
2018-05-12T03:00:46.103Z,0
2018-05-12T03:01:06.390Z,0
2018-05-12T03:01:26.626Z,0
2018-05-12T03:01:46.809Z,0
2018-05-12T04:11:09.230Z,5
2018-05-12T04:11:29.362Z,5
2018-05-12T04:11:49.546Z,5
2018-05-12T04:12:10.537Z,5
2018-05-12T04:12:32.544Z,5
2018-05-12T04:12:53.547Z,5
2018-05-12T04:13:14.588Z,5
2018-05-12T04:13:35.451Z,5
2018-05-12T04:13:55.639Z,5
2018-05-12T04:14:15.873Z,5
2018-05-12T04:14:36.067Z,5
2018-05-12T04:14:56.249Z,5
2018-05-12T04:15:16.458Z,5
2018-05-12T04:15:36.683Z,5
2018-05-12T04:15:56.881Z,5
2018-05-12T04:16:18.057Z,5
2018-05-12T04:25:05.389Z,5
2018-05-12T04:25:25.590Z,5
2018-05-12T04:27:39.341Z,5
2018-05-12T04:27:59.551Z,5
2018-05-12T04:32:04.125Z,5
2018-05-12T04:32:24.370Z,5
2018-05-12T04:34:38.974Z,10
2018-05-12T04:35:00.144Z,10
2018-05-12T04:37:24.548Z,10
2018-05-12T04:37:45.287Z,10
2018-05-12T04:38:05.469Z,10
2018-05-12T04:38:25.662Z,10
2018-05-12T04:38:45.882Z,10
2018-05-12T04:39:06.067Z,10
2018-05-12T04:39:27.240Z,10
2018-05-12T04:39:48.120Z,10
2018-05-12T04:40:08.390Z,10
2018-05-12T04:40:28.626Z,10
2018-05-12T04:40:48.765Z,10
2018-05-12T04:43:07.739Z,10
2018-05-12T04:43:28.704Z,10
2018-05-12T04:43:48.903Z,10
2018-05-12T04:45:36.531Z,10
2018-05-12T04:45:56.743Z,10
2018-05-12T04:46:16.958Z,10
2018-05-12T04:47:58.733Z,10
2018-05-12T04:48:18.928Z,10
2018-05-12T04:50:03.183Z,10
2018-05-12T04:50:23.456Z,10
2018-05-12T04:51:47.845Z,10
2018-05-12T04:52:08.106Z,10
2018-05-12T04:52:28.314Z,15
2018-05-12T04:52:49.240Z,15
2018-05-12T04:53:10.188Z,15
2018-05-12T04:53:30.415Z,15
2018-05-12T04:53:50.563Z,15
2018-05-12T04:54:10.879Z,15
2018-05-12T04:54:31.068Z,15
2018-05-12T04:54:51.256Z,15
2018-05-12T04:55:11.472Z,15
2018-05-12T04:56:45.194Z,15
2018-05-12T04:57:05.424Z,15
2018-05-12T04:57:25.624Z,15
2018-05-12T04:57:45.807Z,15
2018-05-12T04:58:42.872Z,15
2018-05-12T04:59:03.071Z,15
2018-05-12T04:59:23.291Z,15
2018-05-12T04:59:44.247Z,15
2018-05-12T05:00:04.534Z,15
2018-05-12T05:00:24.756Z,15
2018-05-12T05:00:45.744Z,15
2018-05-12T05:01:06.839Z,15
2018-05-12T05:01:26.980Z,15
2018-05-12T05:01:47.186Z,15
2018-05-12T05:02:07.453Z,15
2018-05-12T05:02:27.660Z,15
2018-05-12T05:02:47.822Z,15
2018-05-12T05:03:08.036Z,15
2018-05-12T05:03:28.223Z,15
2018-05-12T05:03:48.478Z,15
2018-05-12T05:04:08.722Z,15
2018-05-12T05:04:28.940Z,15
2018-05-12T05:04:49.242Z,15
2018-05-12T05:05:09.462Z,15
2018-05-12T05:05:29.634Z,15
2018-05-12T05:05:49.839Z,15
2018-05-12T05:06:10.140Z,15
2018-05-12T05:06:30.379Z,15
2018-05-12T05:06:50.615Z,15
2018-05-12T05:07:10.869Z,15
2018-05-12T05:07:31.086Z,15
2018-05-12T05:07:52.257Z,15
2018-05-12T05:08:12.496Z,15
2018-05-12T05:08:32.697Z,15
2018-05-12T05:11:20.615Z,15
2018-05-12T05:11:40.878Z,15
2018-05-12T05:12:37.609Z,15
2018-05-12T05:13:29.294Z,15
2018-05-12T05:13:50.142Z,15
2018-05-12T05:14:46.735Z,15
2018-05-12T05:15:06.977Z,15
2018-05-12T05:15:27.597Z,15
2018-05-12T05:15:48.509Z,20
2018-05-12T05:16:08.699Z,20
2018-05-12T05:16:28.930Z,20
2018-05-12T05:16:49.125Z,15
2018-05-12T05:17:48.212Z,15
2018-05-12T05:18:45.361Z,15
2018-05-12T05:19:05.594Z,15
2018-05-12T05:19:49.876Z,15
2018-05-12T05:20:10.837Z,15
2018-05-12T05:20:31.074Z,15
2018-05-12T05:21:20.229Z,20
2018-05-12T05:21:41.144Z,20
2018-05-12T05:22:01.403Z,20
2018-05-12T05:22:50.690Z,20
2018-05-12T05:23:10.905Z,20
2018-05-12T05:23:31.070Z,20
2018-05-12T05:23:51.298Z,20
2018-05-12T05:24:11.516Z,20
2018-05-12T05:24:31.770Z,20
2018-05-12T05:24:51.963Z,20
2018-05-12T05:25:12.194Z,20
2018-05-12T05:25:32.418Z,20
2018-05-12T05:25:53.280Z,20
2018-05-12T05:26:13.460Z,20
2018-05-12T05:26:33.762Z,20
2018-05-12T05:26:54.022Z,20
2018-05-12T05:27:14.231Z,20
2018-05-12T05:27:35.334Z,25
2018-05-12T05:27:55.540Z,25
2018-05-12T05:28:15.762Z,25
2018-05-12T05:28:36.152Z,25
2018-05-12T05:28:56.378Z,25
2018-05-12T05:29:16.688Z,25
2018-05-12T05:29:36.883Z,25
2018-05-12T05:29:57.920Z,25
2018-05-12T05:30:18.107Z,25
2018-05-12T05:30:38.339Z,25
2018-05-12T05:30:58.587Z,25
2018-05-12T05:31:18.815Z,25
2018-05-12T05:31:39.033Z,25
2018-05-12T05:31:59.219Z,25
2018-05-12T05:32:19.443Z,25
2018-05-12T05:32:39.746Z,25
2018-05-12T05:33:00.041Z,25
2018-05-12T05:33:20.246Z,25
2018-05-12T05:33:40.518Z,25
2018-05-12T05:34:00.868Z,25
2018-05-12T05:34:21.129Z,25
2018-05-12T05:34:41.348Z,25
2018-05-12T05:35:01.564Z,30
2018-05-12T05:35:21.776Z,25
2018-05-12T05:35:41.973Z,25
2018-05-12T05:36:02.174Z,25
2018-05-12T05:36:22.384Z,25
2018-05-12T05:36:42.562Z,25
2018-05-12T05:37:02.787Z,25
2018-05-12T05:37:23.985Z,25
2018-05-12T05:37:44.256Z,25
2018-05-12T05:38:04.527Z,25
2018-05-12T05:38:24.788Z,25
2018-05-12T05:38:45.974Z,25
2018-05-12T05:39:07.211Z,25
2018-05-12T05:39:27.614Z,25
2018-05-12T05:39:47.905Z,25
2018-05-12T05:40:08.186Z,25
2018-05-12T05:40:28.617Z,25
2018-05-12T05:40:48.976Z,25
2018-05-12T05:41:09.288Z,25
2018-05-12T05:41:30.419Z,25
2018-05-12T05:41:50.668Z,25
2018-05-12T05:42:11.955Z,25
2018-05-12T05:42:32.175Z,25
2018-05-12T05:42:52.362Z,25
2018-05-12T05:43:12.719Z,25
2018-05-12T05:43:32.973Z,25
2018-05-12T05:43:53.164Z,25
2018-05-12T05:44:13.380Z,25
2018-05-12T05:44:33.570Z,25
2018-05-12T05:44:53.760Z,25
2018-05-12T05:45:14.505Z,25
2018-05-12T05:45:34.736Z,25
2018-05-12T05:45:55.034Z,25
2018-05-12T05:46:15.257Z,25
2018-05-12T05:46:35.474Z,25
2018-05-12T05:46:55.739Z,25
2018-05-12T05:47:16.009Z,25
2018-05-12T05:47:36.257Z,30
2018-05-12T05:47:56.615Z,30
2018-05-12T05:48:17.454Z,30
2018-05-12T05:48:37.781Z,30
2018-05-12T05:48:57.856Z,30
2018-05-12T05:49:18.182Z,30
2018-05-12T05:49:38.627Z,30
2018-05-12T05:49:59.088Z,30
2018-05-12T05:50:20.180Z,30
2018-05-12T05:50:40.377Z,30
2018-05-12T05:51:00.628Z,25
2018-05-12T05:51:20.983Z,25
2018-05-12T05:51:41.431Z,25
2018-05-12T05:52:01.672Z,30
2018-05-12T05:52:21.879Z,30
2018-05-12T05:52:42.215Z,30
2018-05-12T05:53:02.553Z,30
2018-05-12T05:53:22.923Z,30
2018-05-12T05:53:43.215Z,30
2018-05-12T05:54:03.580Z,30
2018-05-12T05:54:24.590Z,30
2018-05-12T05:54:45.466Z,30
2018-05-12T05:55:05.680Z,30
2018-05-12T05:55:25.913Z,30
2018-05-12T05:55:46.258Z,30
2018-05-12T05:56:06.540Z,30
2018-05-12T05:56:26.828Z,30
2018-05-12T05:56:47.159Z,30
2018-05-12T05:57:07.460Z,30
2018-05-12T05:57:27.735Z,30
2018-05-12T05:57:48.056Z,30
2018-05-12T05:58:08.304Z,30
2018-05-12T05:58:28.709Z,30
2018-05-12T05:58:49.169Z,30
2018-05-12T05:59:09.550Z,30
2018-05-12T05:59:29.908Z,30
2018-05-12T05:59:50.121Z,30
2018-05-12T06:00:10.343Z,30
2018-05-12T06:00:30.717Z,30
2018-05-12T06:00:50.984Z,30
2018-05-12T06:01:11.429Z,30
2018-05-12T06:01:31.826Z,30
2018-05-12T06:01:52.199Z,30
2018-05-12T06:02:12.627Z,30
2018-05-12T06:02:33.603Z,30
2018-05-12T06:02:54.096Z,30
2018-05-12T06:03:14.460Z,30
2018-05-12T06:03:34.720Z,35
2018-05-12T06:03:55.255Z,35
2018-05-12T06:04:15.612Z,35
2018-05-12T06:04:36.009Z,35
2018-05-12T06:04:56.445Z,35
2018-05-12T06:05:16.747Z,35
2018-05-12T06:05:37.134Z,35
2018-05-12T06:05:57.475Z,35
2018-05-12T06:06:17.825Z,35
2018-05-12T06:06:38.295Z,35
2018-05-12T06:06:58.768Z,40
2018-05-12T06:07:19.670Z,40
2018-05-12T06:07:40.014Z,40
2018-05-12T06:08:01.140Z,40
2018-05-12T06:08:22.023Z,40
2018-05-12T06:08:42.393Z,40
2018-05-12T06:09:03.513Z,40
2018-05-12T06:09:23.909Z,40
2018-05-12T06:09:44.320Z,35
2018-05-12T06:10:04.754Z,35
2018-05-12T06:10:25.382Z,35
2018-05-12T06:10:45.752Z,35
2018-05-12T06:11:06.022Z,35
2018-05-12T06:11:26.445Z,35
2018-05-12T06:11:46.857Z,35
2018-05-12T06:12:07.303Z,35
2018-05-12T06:12:27.875Z,35
2018-05-12T06:12:48.302Z,35
2018-05-12T06:13:08.836Z,35
2018-05-12T06:13:30.014Z,35
2018-05-12T06:13:50.398Z,35
2018-05-12T06:14:10.772Z,35
2018-05-12T06:14:31.201Z,35
2018-05-12T06:14:51.681Z,35
2018-05-12T06:15:12.181Z,35
2018-05-12T06:15:32.640Z,35
2018-05-12T06:15:53.126Z,35
2018-05-12T06:16:13.716Z,35
2018-05-12T06:16:34.027Z,35
2018-05-12T06:16:54.491Z,35
2018-05-12T06:17:14.868Z,35
2018-05-12T06:17:35.379Z,35
2018-05-12T06:17:55.819Z,35
2018-05-12T06:18:16.372Z,35
2018-05-12T06:18:36.841Z,35
2018-05-12T06:18:57.402Z,35
2018-05-12T06:19:17.800Z,35
2018-05-12T06:19:39.096Z,40
2018-05-12T06:19:59.570Z,40
2018-05-12T06:20:20.204Z,40
2018-05-12T06:20:40.666Z,40
2018-05-12T06:21:01.407Z,40
2018-05-12T06:21:21.851Z,40
2018-05-12T06:21:46.552Z,40
2018-05-12T06:22:07.114Z,40
2018-05-12T06:22:27.558Z,40
2018-05-12T06:22:47.946Z,40
2018-05-12T06:23:08.306Z,40
2018-05-12T06:23:28.688Z,40
2018-05-12T06:23:49.197Z,40
2018-05-12T06:24:09.611Z,40
2018-05-12T06:24:30.081Z,40
2018-05-12T06:24:51.158Z,40
2018-05-12T06:25:11.553Z,40
2018-05-12T06:25:32.015Z,40
2018-05-12T06:25:53.705Z,40
2018-05-12T06:26:14.176Z,40
2018-05-12T06:26:34.931Z,40
2018-05-12T06:26:56.043Z,40
2018-05-12T06:27:16.737Z,40
2018-05-12T06:27:37.451Z,40
2018-05-12T06:27:58.668Z,40
2018-05-12T06:28:19.151Z,40
2018-05-12T06:28:39.668Z,40
2018-05-12T06:29:00.311Z,40
2018-05-12T06:29:20.983Z,40
2018-05-12T06:29:41.591Z,40
2018-05-12T06:30:02.550Z,40
2018-05-12T06:30:23.220Z,40
2018-05-12T06:30:43.713Z,40
2018-05-12T06:31:04.422Z,40
2018-05-12T06:31:25.130Z,40
2018-05-12T06:31:45.730Z,40
2018-05-12T06:32:07.302Z,40
2018-05-12T06:32:27.994Z,40
2018-05-12T06:32:49.094Z,40
2018-05-12T06:33:09.613Z,40
2018-05-12T06:33:30.206Z,40
2018-05-12T06:33:50.791Z,40
2018-05-12T06:34:12.231Z,40
2018-05-12T06:34:32.715Z,40
2018-05-12T06:34:54.072Z,40
2018-05-12T06:35:14.493Z,40
2018-05-12T06:35:35.036Z,40
2018-05-12T06:35:55.515Z,40
2018-05-12T06:36:15.970Z,40
2018-05-12T06:36:37.136Z,40
2018-05-12T06:36:58.711Z,40
2018-05-12T06:37:19.309Z,40
2018-05-12T06:37:39.715Z,40
2018-05-12T06:38:00.324Z,40
2018-05-12T06:38:20.810Z,40
2018-05-12T06:38:41.391Z,40
2018-05-12T06:39:02.087Z,40
2018-05-12T06:39:24.124Z,40
2018-05-12T06:39:44.838Z,40
2018-05-12T06:40:05.477Z,40
2018-05-12T06:40:26.025Z,40
2018-05-12T06:40:46.588Z,45
2018-05-12T06:41:07.271Z,45
2018-05-12T06:41:27.875Z,45
2018-05-12T06:41:48.498Z,45
2018-05-12T06:42:08.953Z,45
2018-05-12T06:42:29.580Z,45
2018-05-12T06:42:50.282Z,45
2018-05-12T06:43:10.794Z,45
2018-05-12T06:43:32.037Z,45
2018-05-12T06:43:54.218Z,45
2018-05-12T06:44:15.189Z,45
2018-05-12T06:44:36.595Z,45
2018-05-12T06:44:57.585Z,45
2018-05-12T06:45:18.650Z,45
2018-05-12T06:45:39.235Z,45
2018-05-12T06:46:00.702Z,45
2018-05-12T06:46:21.310Z,45
2018-05-12T06:46:41.807Z,45
2018-05-12T06:47:02.405Z,50
2018-05-12T06:47:22.891Z,50
2018-05-12T06:47:43.511Z,50
2018-05-12T06:48:05.671Z,50
2018-05-12T06:48:26.266Z,50
2018-05-12T06:48:46.797Z,50
2018-05-12T06:49:07.192Z,50
2018-05-12T06:49:27.713Z,50
2018-05-12T06:49:48.561Z,50
2018-05-12T06:50:10.024Z,50
2018-05-12T06:50:30.627Z,50
2018-05-12T06:50:51.175Z,50
2018-05-12T06:51:11.562Z,50
2018-05-12T06:51:32.140Z,50
2018-05-12T06:51:52.563Z,50
2018-05-12T06:52:13.079Z,55
2018-05-12T06:52:33.746Z,55
2018-05-12T06:52:54.558Z,55
2018-05-12T06:53:14.808Z,55
2018-05-12T06:53:35.446Z,55
2018-05-12T06:53:58.726Z,55
2018-05-12T06:54:20.637Z,50
2018-05-12T06:54:41.126Z,50
2018-05-12T06:55:01.422Z,50
2018-05-12T06:55:22.043Z,50
2018-05-12T06:55:42.523Z,50
2018-05-12T06:56:03.105Z,50
2018-05-12T06:56:23.830Z,50
2018-05-12T06:56:44.651Z,55
2018-05-12T06:57:06.271Z,55
2018-05-12T06:57:27.081Z,55
2018-05-12T06:57:48.068Z,60
2018-05-12T06:58:08.714Z,60
2018-05-12T06:58:30.104Z,60
2018-05-12T06:58:50.605Z,55
2018-05-12T06:59:11.028Z,50
2018-05-12T06:59:31.733Z,50
2018-05-12T06:59:52.275Z,55
2018-05-12T07:00:13.051Z,55
2018-05-12T07:00:33.746Z,55
2018-05-12T07:00:56.047Z,55
2018-05-12T07:01:16.757Z,55
2018-05-12T07:01:37.616Z,55
2018-05-12T07:01:58.193Z,55
2018-05-12T07:02:18.569Z,60
2018-05-12T07:02:39.212Z,60
2018-05-12T07:03:00.646Z,60
2018-05-12T07:03:22.434Z,60
2018-05-12T07:03:43.056Z,60
2018-05-12T07:04:03.589Z,60
2018-05-12T07:04:24.002Z,55
2018-05-12T07:04:44.426Z,55
2018-05-12T07:05:04.836Z,55
2018-05-12T07:05:25.294Z,55
2018-05-12T07:05:46.018Z,60
2018-05-12T07:06:06.617Z,55
2018-05-12T07:06:27.559Z,55
2018-05-12T07:06:48.006Z,60
2018-05-12T07:07:09.290Z,65
2018-05-12T07:07:29.890Z,60
2018-05-12T07:07:50.521Z,65
2018-05-12T07:08:11.075Z,65
2018-05-12T07:08:31.598Z,65
2018-05-12T07:08:52.321Z,65
2018-05-12T07:09:12.716Z,65
2018-05-12T07:09:33.141Z,60
2018-05-12T07:09:54.272Z,60
2018-05-12T07:10:14.779Z,60
2018-05-12T07:10:35.126Z,65
2018-05-12T07:10:55.528Z,65
2018-05-12T07:11:16.197Z,65
2018-05-12T07:11:36.645Z,60
2018-05-12T07:11:57.634Z,60
2018-05-12T07:12:18.365Z,60
2018-05-12T07:12:39.114Z,65
2018-05-12T07:12:59.712Z,65
2018-05-12T07:13:20.287Z,70
2018-05-12T07:13:42.396Z,65
2018-05-12T07:14:03.724Z,65
2018-05-12T07:14:25.799Z,60
2018-05-12T07:14:48.260Z,60
2018-05-12T07:15:08.717Z,60
2018-05-12T07:15:29.065Z,60
2018-05-12T07:15:49.471Z,60
2018-05-12T07:16:09.740Z,60
2018-05-12T07:16:30.009Z,55
2018-05-12T07:16:51.073Z,55
2018-05-12T07:17:11.414Z,55
2018-05-12T07:17:31.839Z,55
2018-05-12T07:17:52.364Z,55
2018-05-12T07:18:13.635Z,55
2018-05-12T07:18:33.971Z,60
2018-05-12T07:18:54.417Z,60
2018-05-12T07:19:14.750Z,65
2018-05-12T07:19:35.151Z,65
2018-05-12T07:19:56.073Z,65
2018-05-12T07:20:16.561Z,65
2018-05-12T07:20:37.322Z,70
2018-05-12T07:20:57.871Z,65
2018-05-12T07:21:18.501Z,65
2018-05-12T07:21:39.002Z,65
2018-05-12T07:21:59.649Z,65
2018-05-12T07:22:20.142Z,60
2018-05-12T07:22:40.715Z,60
2018-05-12T07:23:01.205Z,60
2018-05-12T07:23:21.526Z,60
2018-05-12T07:23:42.036Z,60
2018-05-12T07:24:02.651Z,60
2018-05-12T07:24:23.020Z,55
2018-05-12T07:24:43.320Z,55
2018-05-12T07:25:04.141Z,55
2018-05-12T07:25:25.089Z,50
2018-05-12T07:25:45.978Z,50
2018-05-12T07:26:06.484Z,50
2018-05-12T07:26:27.594Z,50
2018-05-12T07:26:48.627Z,50
2018-05-12T07:27:09.562Z,50
2018-05-12T07:27:30.175Z,50
2018-05-12T07:27:52.163Z,50
2018-05-12T07:28:12.698Z,50
2018-05-12T07:28:33.176Z,45
2018-05-12T07:28:53.601Z,45
2018-05-12T07:29:14.059Z,40
2018-05-12T07:29:34.679Z,40
2018-05-12T07:29:56.064Z,40
2018-05-12T07:30:16.633Z,40
2018-05-12T07:30:37.236Z,40
2018-05-12T07:30:57.865Z,40
2018-05-12T07:31:18.914Z,40
2018-05-12T07:31:41.096Z,40
2018-05-12T07:32:01.710Z,40
2018-05-12T07:32:22.250Z,40
2018-05-12T07:32:43.000Z,40
2018-05-12T07:33:03.845Z,40
2018-05-12T07:33:24.583Z,40
2018-05-12T07:33:45.174Z,40
2018-05-12T07:34:05.760Z,40
2018-05-12T07:34:26.389Z,40
2018-05-12T07:34:47.818Z,40
2018-05-12T07:35:08.530Z,40
2018-05-12T07:35:29.333Z,40
2018-05-12T07:35:50.675Z,40
2018-05-12T07:36:12.070Z,40
2018-05-12T07:36:32.460Z,40
2018-05-12T07:36:53.061Z,40
2018-05-12T07:37:13.505Z,40
2018-05-12T07:37:33.944Z,40
2018-05-12T07:37:54.460Z,40
2018-05-12T07:38:14.949Z,40
2018-05-12T07:38:35.454Z,40
2018-05-12T07:38:55.825Z,40
2018-05-12T07:39:16.254Z,40
2018-05-12T07:39:36.808Z,40
2018-05-12T07:39:57.531Z,40
2018-05-12T07:40:18.321Z,40
2018-05-12T07:40:38.893Z,40
2018-05-12T07:40:59.433Z,40
2018-05-12T07:41:20.230Z,40
2018-05-12T07:41:41.250Z,40
2018-05-12T07:42:03.277Z,40
2018-05-12T07:42:24.776Z,40
2018-05-12T07:42:46.307Z,40
2018-05-12T07:43:07.105Z,40
2018-05-12T07:43:27.933Z,40
2018-05-12T07:43:48.740Z,40
2018-05-12T07:44:09.471Z,40
2018-05-12T07:44:30.052Z,40
2018-05-12T07:44:50.800Z,40
2018-05-12T07:45:11.286Z,40
2018-05-12T07:45:31.843Z,40
2018-05-12T07:45:52.382Z,40
2018-05-12T07:46:13.141Z,45
2018-05-12T07:46:33.743Z,40
2018-05-12T07:46:54.221Z,40
2018-05-12T07:47:16.135Z,40
2018-05-12T07:47:36.650Z,40
2018-05-12T07:47:57.589Z,45
2018-05-12T07:48:18.349Z,40
2018-05-12T07:48:38.912Z,40
2018-05-12T07:49:00.185Z,40
2018-05-12T07:49:20.953Z,40
2018-05-12T07:49:41.671Z,40
2018-05-12T07:50:02.434Z,40
2018-05-12T07:50:23.119Z,40
2018-05-12T07:50:43.466Z,40
2018-05-12T07:51:03.916Z,40
2018-05-12T07:51:24.586Z,40
2018-05-12T07:51:45.426Z,40
2018-05-12T07:52:06.246Z,40
2018-05-12T07:52:29.083Z,40
2018-05-12T07:52:49.830Z,40
2018-05-12T07:53:10.593Z,40
2018-05-12T07:53:32.307Z,40
2018-05-12T07:53:53.050Z,40
2018-05-12T07:54:14.083Z,40
2018-05-12T07:54:34.747Z,40
2018-05-12T07:54:55.554Z,40
2018-05-12T07:55:16.674Z,40
2018-05-12T07:55:37.225Z,40
2018-05-12T07:55:58.892Z,40
2018-05-12T07:56:19.672Z,40
2018-05-12T07:56:40.858Z,40
2018-05-12T07:57:01.961Z,40
2018-05-12T07:57:23.149Z,40
2018-05-12T07:57:44.778Z,40
2018-05-12T07:58:05.660Z,40
2018-05-12T07:58:26.263Z,40
2018-05-12T07:58:47.252Z,40
2018-05-12T07:59:08.078Z,40
2018-05-12T07:59:28.941Z,40
2018-05-12T07:59:49.897Z,40
2018-05-12T08:00:10.690Z,40
2018-05-12T08:00:31.987Z,40
2018-05-12T08:00:53.251Z,40
2018-05-12T08:01:14.780Z,40
2018-05-12T08:01:35.553Z,40
2018-05-12T08:01:56.372Z,40
2018-05-12T08:02:16.979Z,40
2018-05-12T08:02:37.561Z,40
2018-05-12T08:02:58.148Z,40
2018-05-12T08:03:18.739Z,40
2018-05-12T08:03:39.455Z,40
2018-05-12T08:04:00.294Z,40
2018-05-12T08:04:21.446Z,40
2018-05-12T08:04:42.148Z,40
2018-05-12T08:05:02.632Z,40
2018-05-12T08:05:23.539Z,40
2018-05-12T08:05:44.257Z,40
2018-05-12T08:06:05.300Z,40
2018-05-12T08:06:25.864Z,40
2018-05-12T08:06:46.490Z,40
2018-05-12T08:07:07.441Z,40
2018-05-12T08:07:28.070Z,40
2018-05-12T08:07:49.259Z,40
2018-05-12T08:08:09.924Z,40
2018-05-12T08:08:30.549Z,40
2018-05-12T08:08:51.031Z,40
2018-05-12T08:09:12.196Z,40
2018-05-12T08:09:33.197Z,40
2018-05-12T08:09:53.917Z,40
2018-05-12T08:10:14.791Z,40
2018-05-12T08:10:35.248Z,40
2018-05-12T08:10:56.194Z,40
2018-05-12T08:11:16.907Z,40
2018-05-12T08:11:38.611Z,40
2018-05-12T08:11:59.420Z,40
2018-05-12T08:12:19.938Z,40
2018-05-12T08:12:40.729Z,40
2018-05-12T08:13:01.324Z,40
2018-05-12T08:13:21.914Z,40
2018-05-12T08:13:42.826Z,40
2018-05-12T08:14:03.435Z,40
2018-05-12T08:14:24.239Z,40
2018-05-12T08:14:44.859Z,40
2018-05-12T08:15:05.428Z,40
2018-05-12T08:15:26.693Z,40
2018-05-12T08:15:47.179Z,40
2018-05-12T08:16:08.319Z,40
2018-05-12T08:16:29.707Z,40
2018-05-12T08:16:50.283Z,40
2018-05-12T08:17:10.834Z,40
2018-05-12T08:17:32.205Z,40
2018-05-12T08:17:53.155Z,40
2018-05-12T08:18:13.814Z,40
2018-05-12T08:18:34.481Z,40
2018-05-12T08:18:55.188Z,40
2018-05-12T08:19:15.747Z,40
2018-05-12T08:19:36.440Z,40
2018-05-12T08:19:58.209Z,40
2018-05-12T08:20:19.335Z,40
2018-05-12T08:20:40.216Z,40
2018-05-12T08:21:01.202Z,40
2018-05-12T08:21:22.098Z,40
2018-05-12T08:21:43.878Z,40
2018-05-12T08:22:05.287Z,40
2018-05-12T08:22:26.007Z,40
2018-05-12T08:22:47.058Z,40
2018-05-12T08:23:07.424Z,40
2018-05-12T08:23:28.655Z,40
2018-05-12T08:23:49.062Z,40
2018-05-12T08:24:09.536Z,40
2018-05-12T08:24:29.820Z,40
2018-05-12T08:24:50.172Z,40
2018-05-12T08:25:10.494Z,40
2018-05-12T08:25:30.908Z,40
2018-05-12T08:25:51.543Z,40
2018-05-12T08:26:12.407Z,40
2018-05-12T08:26:34.157Z,40
2018-05-12T08:26:54.990Z,40
2018-05-12T08:27:15.318Z,40
2018-05-12T08:27:36.591Z,40
2018-05-12T08:27:56.924Z,40
2018-05-12T08:28:17.467Z,40
2018-05-12T08:28:37.926Z,40
2018-05-12T08:28:59.213Z,40
2018-05-12T08:29:19.504Z,40
2018-05-12T08:29:39.894Z,40
2018-05-12T08:30:00.178Z,40
2018-05-12T08:30:20.554Z,40
2018-05-12T08:30:40.946Z,40
2018-05-12T08:31:01.223Z,40
2018-05-12T08:31:21.667Z,40
2018-05-12T08:31:41.982Z,40
2018-05-12T08:32:03.251Z,40
2018-05-12T08:32:23.678Z,40
2018-05-12T08:32:44.066Z,40
2018-05-12T08:33:05.134Z,40
2018-05-12T08:33:26.093Z,40
2018-05-12T08:33:46.848Z,40
2018-05-12T08:34:07.542Z,40
2018-05-12T08:34:28.057Z,40
2018-05-12T08:34:48.431Z,40
2018-05-12T08:35:09.042Z,40
2018-05-12T08:35:29.538Z,40
2018-05-12T08:35:50.001Z,40
2018-05-12T08:36:10.293Z,40
2018-05-12T08:36:30.739Z,40
2018-05-12T08:36:51.143Z,40
2018-05-12T08:37:12.172Z,40
2018-05-12T08:37:32.655Z,40
2018-05-12T08:37:53.886Z,40
2018-05-12T08:38:14.403Z,40
2018-05-12T08:38:35.018Z,40
2018-05-12T08:38:57.222Z,40
2018-05-12T08:39:18.038Z,40
2018-05-12T08:39:38.813Z,40
2018-05-12T08:39:59.800Z,40
2018-05-12T08:40:20.484Z,40
2018-05-12T08:40:41.391Z,40
2018-05-12T08:41:01.977Z,40
2018-05-12T08:41:22.375Z,40
2018-05-12T08:41:43.745Z,40
2018-05-12T08:42:04.285Z,40
2018-05-12T08:42:24.912Z,40
2018-05-12T08:42:46.178Z,40
2018-05-12T08:43:06.558Z,40
2018-05-12T08:43:26.985Z,40
2018-05-12T08:43:48.118Z,40
2018-05-12T08:44:08.702Z,40
2018-05-12T08:44:29.187Z,40
2018-05-12T08:44:49.752Z,40
2018-05-12T08:45:10.215Z,40
2018-05-12T08:45:30.764Z,40
2018-05-12T08:45:51.263Z,40
2018-05-12T08:46:11.763Z,40
2018-05-12T08:46:32.271Z,40
2018-05-12T08:46:52.805Z,40
2018-05-12T08:47:13.269Z,40
2018-05-12T08:47:33.744Z,40
2018-05-12T08:47:54.331Z,40
2018-05-12T08:48:15.213Z,40
2018-05-12T08:48:35.794Z,40
2018-05-12T08:48:56.317Z,40
2018-05-12T08:49:16.978Z,40
2018-05-12T08:49:37.448Z,40
2018-05-12T08:49:58.793Z,40
2018-05-12T08:50:20.222Z,40
2018-05-12T08:50:40.711Z,40
2018-05-12T08:51:01.501Z,40
2018-05-12T08:51:22.175Z,40
2018-05-12T08:51:42.681Z,40
2018-05-12T08:52:03.266Z,40
2018-05-12T08:52:23.866Z,40
2018-05-12T08:52:44.314Z,40
2018-05-12T08:53:04.919Z,40
2018-05-12T08:53:25.473Z,40
2018-05-12T08:53:46.000Z,40
2018-05-12T08:54:06.444Z,40
2018-05-12T08:54:27.760Z,40
2018-05-12T08:54:48.264Z,40
2018-05-12T08:55:08.752Z,40
2018-05-12T08:55:29.450Z,40
2018-05-12T08:55:49.957Z,40
2018-05-12T08:56:10.444Z,40
2018-05-12T08:56:30.857Z,40
2018-05-12T08:56:51.406Z,40
2018-05-12T08:57:11.877Z,40
2018-05-12T08:57:32.473Z,40
2018-05-12T08:57:52.950Z,40
2018-05-12T08:58:13.435Z,40
2018-05-12T08:58:34.401Z,40
2018-05-12T08:58:55.432Z,40
2018-05-12T08:59:15.934Z,40
2018-05-12T08:59:36.555Z,40
2018-05-12T08:59:57.156Z,40
2018-05-12T09:00:17.679Z,40
2018-05-12T09:00:38.061Z,40
2018-05-12T09:00:58.506Z,40
2018-05-12T09:01:19.202Z,40
2018-05-12T09:01:39.637Z,40
2018-05-12T09:02:00.116Z,40
2018-05-12T09:02:20.650Z,40
2018-05-12T09:02:41.127Z,40
2018-05-12T09:03:01.457Z,40
2018-05-12T09:03:22.040Z,40
2018-05-12T09:03:42.509Z,40
2018-05-12T09:04:03.668Z,40
2018-05-12T09:04:24.209Z,40
2018-05-12T09:04:44.758Z,40
2018-05-12T09:05:05.101Z,40
2018-05-12T09:05:25.596Z,40
2018-05-12T09:05:46.745Z,40
2018-05-12T09:06:07.290Z,40
2018-05-12T09:06:28.737Z,40
2018-05-12T09:06:49.218Z,40
2018-05-12T09:07:09.610Z,40
2018-05-12T09:07:30.197Z,40
2018-05-12T09:07:50.583Z,40
2018-05-12T09:08:11.679Z,40
2018-05-12T09:08:32.670Z,40
2018-05-12T09:08:53.707Z,40
2018-05-12T09:09:14.166Z,40
2018-05-12T09:09:34.515Z,40
2018-05-12T09:09:54.895Z,40
2018-05-12T09:10:16.179Z,40
2018-05-12T09:10:36.627Z,40
2018-05-12T09:10:57.034Z,40
2018-05-12T09:11:17.418Z,40
2018-05-12T09:11:38.250Z,40
2018-05-12T09:11:59.093Z,40
2018-05-12T09:12:19.498Z,40
2018-05-12T09:12:39.805Z,40
2018-05-12T09:13:00.142Z,40
2018-05-12T09:13:20.526Z,40
2018-05-12T09:13:40.877Z,40
2018-05-12T09:14:01.369Z,40
2018-05-12T09:14:21.947Z,40
2018-05-12T09:14:42.567Z,40
2018-05-12T09:15:02.931Z,40
2018-05-12T09:15:23.415Z,40
2018-05-12T09:15:43.915Z,40
2018-05-12T09:16:04.282Z,40
2018-05-12T09:16:24.873Z,40
2018-05-12T09:16:45.375Z,40
2018-05-12T09:17:05.768Z,40
2018-05-12T09:17:26.210Z,40
2018-05-12T09:17:46.760Z,40
2018-05-12T09:18:07.269Z,40
2018-05-12T09:18:28.673Z,40
2018-05-12T09:18:49.658Z,40
2018-05-12T09:19:10.058Z,40
2018-05-12T09:19:30.628Z,40
2018-05-12T09:19:51.004Z,40
2018-05-12T09:20:11.286Z,40
2018-05-12T09:20:31.566Z,40
2018-05-12T09:20:52.594Z,40
2018-05-12T09:21:12.993Z,40
2018-05-12T09:21:33.358Z,40
2018-05-12T09:21:53.887Z,40
2018-05-12T09:22:14.405Z,40
2018-05-12T09:22:35.160Z,40
2018-05-12T09:22:55.543Z,40
2018-05-12T09:23:16.649Z,40
2018-05-12T09:23:37.690Z,40
2018-05-12T09:23:57.990Z,40
2018-05-12T09:24:18.520Z,40
2018-05-12T09:24:39.672Z,40
2018-05-12T09:25:00.073Z,40
2018-05-12T09:25:21.365Z,45
2018-05-12T09:25:42.136Z,40
2018-05-12T09:26:02.452Z,45
2018-05-12T09:26:22.785Z,45
2018-05-12T09:26:43.269Z,45
2018-05-12T09:27:04.071Z,40
2018-05-12T09:27:24.886Z,40
2018-05-12T09:27:45.828Z,40
2018-05-12T09:28:06.934Z,40
2018-05-12T09:28:27.609Z,40
2018-05-12T09:28:48.268Z,40
2018-05-12T09:29:08.855Z,40
2018-05-12T09:29:30.290Z,40
2018-05-12T09:29:51.667Z,40
2018-05-12T09:30:12.793Z,40
2018-05-12T09:30:34.380Z,40
2018-05-12T09:30:55.139Z,40
2018-05-12T09:31:16.768Z,40
2018-05-12T09:31:37.855Z,40
2018-05-12T09:31:59.042Z,40
2018-05-12T09:32:20.258Z,40
2018-05-12T09:32:43.092Z,40
2018-05-12T09:34:37.129Z,40
2018-05-12T09:34:57.975Z,40
2018-05-12T09:38:44.845Z,40
2018-05-12T09:39:05.647Z,40
2018-05-12T09:39:26.811Z,40
2018-05-12T09:41:19.158Z,40
2018-05-12T09:52:05.257Z,60
2018-05-12T10:00:36.302Z,40
2018-05-12T10:10:41.633Z,35
2018-05-12T10:22:24.753Z,40
2018-05-12T10:35:28.925Z,35
2018-05-12T10:58:47.188Z,40